createdAt,value
2018-12-20T00:01:21.059Z,12.03
2018-12-20T00:03:48.744Z,12.53
2018-12-20T00:06:16.361Z,13.67
2018-12-20T00:08:44.036Z,14.63
2018-12-20T00:11:11.616Z,14.60
2018-12-20T00:13:39.282Z,15.20
2018-12-20T00:16:06.845Z,15.03
2018-12-20T00:18:34.401Z,14.50
2018-12-20T00:21:02.600Z,14.70
2018-12-20T00:23:30.243Z,13.77
2018-12-20T00:25:57.796Z,14.80
2018-12-20T00:28:25.375Z,15.47
2018-12-20T00:30:53.113Z,15.20
2018-12-20T00:33:20.818Z,14.77
2018-12-20T00:35:48.433Z,12.73
2018-12-20T00:38:16.090Z,13.73
2018-12-20T00:40:43.816Z,14.13
2018-12-20T00:43:11.444Z,14.63
2018-12-20T00:45:39.156Z,15.27
2018-12-20T00:48:06.840Z,15.10
2018-12-20T00:50:34.760Z,14.67
2018-12-20T00:53:02.462Z,14.87
2018-12-20T00:55:30.167Z,14.53
2018-12-20T00:57:58.068Z,13.70
2018-12-20T01:00:25.743Z,14.57
2018-12-20T01:02:55.330Z,15.08
2018-12-20T01:05:23.061Z,12.87
2018-12-20T01:07:50.644Z,11.03
2018-12-20T01:10:18.215Z,12.10
2018-12-20T01:12:45.945Z,10.53
2018-12-20T01:15:13.594Z,9.90
2018-12-20T01:17:41.308Z,9.13
2018-12-20T01:20:08.905Z,8.97
2018-12-20T01:22:36.516Z,7.33
2018-12-20T01:25:04.237Z,6.77
2018-12-20T01:27:31.856Z,7.60
2018-12-20T01:29:59.408Z,6.50
2018-12-20T01:32:26.980Z,6.43
2018-12-20T01:34:54.562Z,6.37
2018-12-20T01:37:22.438Z,6.17
2018-12-20T01:39:50.091Z,6.90
2018-12-20T01:42:17.859Z,7.40
2018-12-20T01:44:53.319Z,6.83
2018-12-20T01:47:15.191Z,7.67
2018-12-20T01:49:42.901Z,7.30
2018-12-20T01:52:10.565Z,7.37
2018-12-20T01:54:38.271Z,7.87
2018-12-20T01:57:06.228Z,7.57
2018-12-20T01:59:33.793Z,8.23
2018-12-20T02:02:01.508Z,8.60
2018-12-20T02:04:29.187Z,8.40
2018-12-20T02:06:56.966Z,7.93
2018-12-20T02:09:24.621Z,9.35
2018-12-20T02:11:52.416Z,9.27
2018-12-20T02:14:20.051Z,7.53
2018-12-20T02:16:47.869Z,8.87
2018-12-20T02:19:15.787Z,9.20
2018-12-20T02:21:43.549Z,8.43
2018-12-20T02:24:11.229Z,9.10
2018-12-20T02:26:38.926Z,9.93
2018-12-20T02:29:06.654Z,9.70
2018-12-20T02:31:34.260Z,10.27
2018-12-20T02:34:01.962Z,10.83
2018-12-20T02:36:29.709Z,10.77
2018-12-20T02:38:57.464Z,10.63
2018-12-20T02:41:25.145Z,10.03
2018-12-20T02:43:52.939Z,10.40
2018-12-20T02:46:20.621Z,10.70
2018-12-20T02:48:48.434Z,9.80
2018-12-20T02:51:16.271Z,9.73
2018-12-20T02:53:44.117Z,9.93
2018-12-20T02:56:11.663Z,9.53
2018-12-20T02:58:39.261Z,10.07
2018-12-20T03:01:06.963Z,10.27
2018-12-20T03:03:34.576Z,10.53
2018-12-20T03:06:02.169Z,11.10
2018-12-20T03:08:29.939Z,12.33
2018-12-20T03:10:57.954Z,10.77
2018-12-20T03:13:25.775Z,11.13
2018-12-20T03:15:54.146Z,10.57
2018-12-20T03:18:21.879Z,11.40
2018-12-20T03:20:49.615Z,11.97
2018-12-20T03:23:17.272Z,10.60
2018-12-20T03:25:44.836Z,10.80
2018-12-20T03:28:12.565Z,11.57
2018-12-20T03:30:40.185Z,11.40
2018-12-20T03:33:10.450Z,11.17
2018-12-20T03:35:37.329Z,10.53
2018-12-20T03:38:04.995Z,10.57
2018-12-20T03:40:32.980Z,10.47
2018-12-20T03:43:00.826Z,9.97
2018-12-20T03:45:29.367Z,10.20
2018-12-20T03:47:57.111Z,10.90
2018-12-20T03:50:24.715Z,10.33
2018-12-20T03:52:52.362Z,9.73
2018-12-20T03:55:20.172Z,10.27
2018-12-20T03:57:47.933Z,10.50
2018-12-20T04:00:15.910Z,9.27
2018-12-20T04:02:44.053Z,9.20
2018-12-20T04:05:11.732Z,9.57
2018-12-20T04:07:39.292Z,9.07
2018-12-20T04:10:07.071Z,8.47
2018-12-20T04:12:34.758Z,8.67
2018-12-20T04:15:02.311Z,7.43
2018-12-20T04:17:29.862Z,8.70
2018-12-20T04:19:57.415Z,9.37
2018-12-20T04:22:24.969Z,8.70
2018-12-20T04:24:52.566Z,8.53
2018-12-20T04:27:20.121Z,8.77
2018-12-20T04:29:47.696Z,8.10
2018-12-20T04:32:15.544Z,9.13
2018-12-20T04:34:43.312Z,8.43
2018-12-20T04:37:10.903Z,7.87
2018-12-20T04:39:38.456Z,7.77
2018-12-20T04:42:06.005Z,8.63
2018-12-20T04:44:33.557Z,8.67
2018-12-20T04:47:01.273Z,8.50
2018-12-20T04:49:28.942Z,8.60
2018-12-20T04:51:56.552Z,7.43
2018-12-20T04:54:24.108Z,8.83
2018-12-20T04:56:51.768Z,8.43
2018-12-20T04:59:19.700Z,7.83
2018-12-20T05:01:47.859Z,8.90
2018-12-20T05:04:15.692Z,9.10
2018-12-20T05:06:43.413Z,7.73
2018-12-20T05:09:11.251Z,8.33
2018-12-20T05:11:38.974Z,8.53
2018-12-20T05:14:06.573Z,8.93
2018-12-20T05:16:34.575Z,8.20
2018-12-20T05:19:02.251Z,8.70
2018-12-20T05:21:29.949Z,8.87
2018-12-20T05:23:58.462Z,8.67
2018-12-20T05:26:26.189Z,8.00
2018-12-20T05:28:53.743Z,7.50
2018-12-20T05:31:21.333Z,7.57
2018-12-20T05:33:49.071Z,7.40
2018-12-20T05:36:16.791Z,6.87
2018-12-20T05:38:44.405Z,8.03
2018-12-20T05:41:12.240Z,6.90
2018-12-20T05:43:40.046Z,7.30
2018-12-20T05:46:07.672Z,8.73
2018-12-20T05:48:35.339Z,7.80
2018-12-20T05:51:03.232Z,8.10
2018-12-20T05:53:30.880Z,8.77
2018-12-20T05:55:58.450Z,8.70
2018-12-20T05:58:26.250Z,8.93
2018-12-20T06:00:54.132Z,9.20
2018-12-20T06:03:22.583Z,8.93
2018-12-20T06:05:50.151Z,9.37
2018-12-20T06:08:17.720Z,8.27
2018-12-20T06:10:45.280Z,9.30
2018-12-20T06:13:12.875Z,9.17
2018-12-20T06:15:40.551Z,9.47
2018-12-20T06:18:08.494Z,8.73
2018-12-20T06:20:36.412Z,9.00
2018-12-20T06:23:04.010Z,9.00
2018-12-20T06:25:31.553Z,9.40
2018-12-20T06:27:59.101Z,9.20
2018-12-20T06:30:27.172Z,9.83
2018-12-20T06:32:54.721Z,9.03
2018-12-20T06:35:22.270Z,8.93
2018-12-20T06:37:49.859Z,8.77
2018-12-20T06:40:17.751Z,9.07
2018-12-20T06:42:47.514Z,8.90
2018-12-20T06:45:15.312Z,8.50
2018-12-20T06:47:42.880Z,9.07
2018-12-20T06:50:10.424Z,8.53
2018-12-20T06:52:37.977Z,8.53
2018-12-20T06:55:05.528Z,7.87
2018-12-20T06:57:33.082Z,7.23
2018-12-20T07:00:00.648Z,7.23
2018-12-20T07:02:28.197Z,7.27
2018-12-20T07:04:56.600Z,7.63
2018-12-20T07:07:24.147Z,7.57
2018-12-20T07:09:51.694Z,7.60
2018-12-20T07:12:19.281Z,7.50
2018-12-20T07:14:46.836Z,7.30
2018-12-20T07:17:14.383Z,6.80
2018-12-20T07:19:41.927Z,7.17
2018-12-20T07:22:09.924Z,7.57
2018-12-20T07:24:37.476Z,7.07
2018-12-20T07:27:05.028Z,6.67
2018-12-20T07:29:32.590Z,5.73
2018-12-20T07:32:00.136Z,6.03
2018-12-20T07:34:27.684Z,6.23
2018-12-20T07:36:55.238Z,6.40
2018-12-20T07:39:22.801Z,7.60
2018-12-20T07:41:50.357Z,6.80
2018-12-20T07:44:17.917Z,6.60
2018-12-20T07:46:45.473Z,7.27
2018-12-20T07:49:13.024Z,7.13
2018-12-20T07:51:40.583Z,6.77
2018-12-20T07:54:08.132Z,6.33
2018-12-20T07:56:35.691Z,7.70
2018-12-20T07:59:03.251Z,6.77
2018-12-20T08:01:30.807Z,6.57
2018-12-20T08:03:58.366Z,6.60
2018-12-20T08:06:26.720Z,7.00
2018-12-20T08:08:54.271Z,6.60
2018-12-20T08:11:21.873Z,5.33
2018-12-20T08:13:49.443Z,5.80
2018-12-20T08:16:17.071Z,5.13
2018-12-20T08:18:44.629Z,6.30
2018-12-20T08:21:12.214Z,7.13
2018-12-20T08:23:39.773Z,6.50
2018-12-20T08:26:08.093Z,6.50
2018-12-20T08:28:35.643Z,8.47
2018-12-20T08:31:03.196Z,7.30
2018-12-20T08:33:30.757Z,7.60
2018-12-20T08:35:58.316Z,6.83
2018-12-20T08:38:25.880Z,6.77
2018-12-20T08:40:53.436Z,5.03
2018-12-20T08:43:20.988Z,5.97
2018-12-20T08:45:48.536Z,5.43
2018-12-20T08:48:16.080Z,4.93
2018-12-20T08:50:43.639Z,4.37
2018-12-20T08:53:11.199Z,4.20
2018-12-20T08:55:38.768Z,4.37
2018-12-20T08:58:06.332Z,4.03
2018-12-20T09:00:33.907Z,3.70
2018-12-20T09:03:01.454Z,4.07
2018-12-20T09:05:29.008Z,4.40
2018-12-20T09:07:56.553Z,3.90
2018-12-20T09:10:24.100Z,4.37
2018-12-20T09:12:51.657Z,4.70
2018-12-20T09:15:19.199Z,4.93
2018-12-20T09:17:46.756Z,4.83
2018-12-20T09:20:14.309Z,4.80
2018-12-20T09:22:41.866Z,4.50
2018-12-20T09:25:09.414Z,6.07
2018-12-20T09:27:37.320Z,4.67
2018-12-20T09:30:05.053Z,4.60
2018-12-20T09:32:32.614Z,4.90
2018-12-20T09:35:00.172Z,4.67
2018-12-20T09:37:27.734Z,4.73
2018-12-20T09:39:55.287Z,4.87
2018-12-20T09:42:22.845Z,4.40
2018-12-20T09:44:50.392Z,4.20
2018-12-20T09:47:23.647Z,3.80
2018-12-20T09:49:51.200Z,4.20
2018-12-20T09:52:18.752Z,4.58
2018-12-20T09:54:46.331Z,4.53
2018-12-20T09:57:13.888Z,3.57
2018-12-20T09:59:41.436Z,4.10
2018-12-20T10:02:08.993Z,3.67
2018-12-20T10:04:36.588Z,3.90
2018-12-20T10:07:04.144Z,4.70
2018-12-20T10:09:31.723Z,4.50
2018-12-20T10:11:59.305Z,4.47
2018-12-20T10:14:26.861Z,4.70
2018-12-20T10:16:54.408Z,4.67
2018-12-20T10:19:22.038Z,4.87
2018-12-20T10:21:49.595Z,4.73
2018-12-20T10:24:17.158Z,5.37
2018-12-20T10:26:44.715Z,4.67
2018-12-20T10:29:12.264Z,4.60
2018-12-20T10:31:39.816Z,4.70
2018-12-20T10:34:07.377Z,4.87
2018-12-20T10:36:34.936Z,4.43
2018-12-20T10:39:02.501Z,4.03
2018-12-20T10:41:30.065Z,4.20
2018-12-20T10:43:57.619Z,4.80
2018-12-20T10:46:25.172Z,4.60
2018-12-20T10:48:56.188Z,5.27
2018-12-20T10:51:23.784Z,5.33
2018-12-20T10:53:51.340Z,5.07
2018-12-20T10:56:18.892Z,5.10
2018-12-20T10:58:46.437Z,4.70
2018-12-20T11:01:19.628Z,5.30
2018-12-20T11:03:47.184Z,6.13
2018-12-20T11:06:20.387Z,6.43
2018-12-20T11:08:54.094Z,6.20
2018-12-20T11:11:21.640Z,5.73
2018-12-20T11:13:49.195Z,5.03
2018-12-20T11:16:16.766Z,3.93
2018-12-20T11:18:44.332Z,4.57
2018-12-20T11:21:11.896Z,4.07
2018-12-20T11:23:39.465Z,4.13
2018-12-20T11:26:07.007Z,3.97
2018-12-20T11:28:34.556Z,4.73
2018-12-20T11:31:02.116Z,4.83
2018-12-20T11:33:29.675Z,4.80
2018-12-20T11:35:57.227Z,4.60
2018-12-20T11:38:24.783Z,4.80
2018-12-20T11:40:54.545Z,5.27
2018-12-20T11:43:21.916Z,4.83
2018-12-20T11:45:49.469Z,4.70
2018-12-20T11:48:17.351Z,5.57
2018-12-20T11:50:44.913Z,5.30
2018-12-20T11:53:12.461Z,5.97
2018-12-20T11:55:40.024Z,5.30
2018-12-20T11:58:07.608Z,4.97
2018-12-20T12:00:36.703Z,4.93
2018-12-20T12:03:04.331Z,5.17
2018-12-20T12:05:32.192Z,4.77
2018-12-20T12:07:59.761Z,4.80
2018-12-20T12:10:27.376Z,5.03
2018-12-20T12:12:54.931Z,4.40
2018-12-20T12:15:22.483Z,4.80
2018-12-20T12:17:54.176Z,5.07
2018-12-20T12:20:19.621Z,4.27
2018-12-20T12:22:47.175Z,4.40
2018-12-20T12:25:14.732Z,4.67
2018-12-20T12:27:42.284Z,4.47
2018-12-20T12:30:09.840Z,4.80
2018-12-20T12:32:37.393Z,3.87
2018-12-20T12:35:04.944Z,4.30
2018-12-20T12:37:32.864Z,3.70
2018-12-20T12:40:00.418Z,3.43
2018-12-20T12:42:27.967Z,3.63
2018-12-20T12:44:55.520Z,4.20
2018-12-20T12:50:30.975Z,4.10
2018-12-20T12:52:58.684Z,4.33
2018-12-20T12:55:26.237Z,4.33
2018-12-20T12:57:54.970Z,3.27
2018-12-20T13:00:23.327Z,4.77
2018-12-20T13:02:50.881Z,4.30
2018-12-20T13:05:18.437Z,4.10
2018-12-20T13:07:46.278Z,3.53
2018-12-20T13:10:14.413Z,4.08
2018-12-20T13:12:42.253Z,3.97
2018-12-20T13:15:10.371Z,3.20
2018-12-20T13:17:37.920Z,3.50
2018-12-20T13:20:07.633Z,3.73
2018-12-20T13:22:35.215Z,3.30
2018-12-20T13:25:02.759Z,3.40
2018-12-20T13:27:30.688Z,4.40
2018-12-20T13:29:58.231Z,3.90
2018-12-20T13:32:25.777Z,3.77
2018-12-20T13:34:53.328Z,3.47
2018-12-20T13:37:20.872Z,3.87
2018-12-20T13:39:49.174Z,3.77
2018-12-20T13:42:16.731Z,4.13
2018-12-20T13:44:45.140Z,3.57
2018-12-20T13:47:12.751Z,3.03
2018-12-20T13:49:40.305Z,3.00
2018-12-20T13:52:07.866Z,3.10
2018-12-20T13:54:35.432Z,3.30
2018-12-20T13:57:02.985Z,2.93
2018-12-20T13:59:30.535Z,2.87
2018-12-20T14:01:58.092Z,3.43
2018-12-20T14:04:26.374Z,2.80
2018-12-20T14:06:53.928Z,3.37
2018-12-20T14:09:21.473Z,3.60
2018-12-20T14:11:49.019Z,3.23
2018-12-20T14:14:16.578Z,3.07
2018-12-20T14:16:44.135Z,3.50
2018-12-20T14:19:11.697Z,3.30
2018-12-20T14:21:39.239Z,3.87
2018-12-20T14:24:06.788Z,3.63
2018-12-20T14:26:34.892Z,3.83
2018-12-20T14:29:03.208Z,4.00
2018-12-20T14:31:30.764Z,3.00
2018-12-20T14:33:58.796Z,3.43
2018-12-20T14:36:26.348Z,3.43
2018-12-20T14:38:53.903Z,3.60
2018-12-20T14:41:21.468Z,3.77
2018-12-20T14:43:49.015Z,3.80
2018-12-20T14:46:16.561Z,2.97
2018-12-20T14:48:44.115Z,3.57
2018-12-20T14:51:11.676Z,3.60
2018-12-20T14:53:39.219Z,3.70
2018-12-20T14:56:06.776Z,3.80
2018-12-20T14:58:34.320Z,3.93
2018-12-20T15:01:02.145Z,3.67
2018-12-20T15:03:29.696Z,3.47
2018-12-20T15:05:59.103Z,3.50
2018-12-20T15:08:26.827Z,4.10
2018-12-20T15:10:54.379Z,3.77
2018-12-20T15:13:21.947Z,3.57
2018-12-20T15:15:49.508Z,3.60
2018-12-20T15:18:17.060Z,4.47
2018-12-20T15:20:44.611Z,3.20
2018-12-20T15:23:12.181Z,4.43
2018-12-20T15:25:39.769Z,3.27
2018-12-20T15:28:07.325Z,2.90
2018-12-20T15:30:34.872Z,3.43
2018-12-20T15:33:02.465Z,3.37
2018-12-20T15:35:30.026Z,2.63
2018-12-20T15:37:57.584Z,3.47
2018-12-20T15:40:25.368Z,3.60
2018-12-20T15:42:52.912Z,3.50
2018-12-20T15:45:20.460Z,3.03
2018-12-20T15:47:48.008Z,3.37
2018-12-20T15:50:15.576Z,3.43
2018-12-20T15:52:43.996Z,2.97
2018-12-20T15:55:11.575Z,3.23
2018-12-20T15:57:39.151Z,3.13
2018-12-20T16:00:07.842Z,3.52
2018-12-20T16:02:35.421Z,3.67
2018-12-20T16:05:03.932Z,4.20
2018-12-20T16:07:31.480Z,3.63
2018-12-20T16:09:59.705Z,3.53
2018-12-20T16:12:27.266Z,3.53
2018-12-20T16:14:54.825Z,3.23
2018-12-20T16:17:22.376Z,3.40
2018-12-20T16:19:49.933Z,4.00
2018-12-20T16:22:17.476Z,3.37
2018-12-20T16:24:45.033Z,2.97
2018-12-20T16:27:12.580Z,3.47
2018-12-20T16:29:40.133Z,3.83
2018-12-20T16:32:07.681Z,4.00
2018-12-20T16:34:36.050Z,4.07
2018-12-20T16:37:03.603Z,4.60
2018-12-20T16:39:31.157Z,4.87
2018-12-20T16:41:59.599Z,4.70
2018-12-20T16:44:27.383Z,4.83
2018-12-20T16:46:55.035Z,5.17
2018-12-20T16:49:22.620Z,5.37
2018-12-20T16:51:50.176Z,4.63
2018-12-20T16:54:18.722Z,5.67
2018-12-20T16:56:46.279Z,5.37
2018-12-20T16:59:13.879Z,5.60
2018-12-20T17:01:41.433Z,5.10
2018-12-20T17:04:08.988Z,5.73
2018-12-20T17:06:36.540Z,5.23
2018-12-20T17:09:05.866Z,5.20
2018-12-20T17:11:33.419Z,6.10
2018-12-20T17:14:01.973Z,4.80
2018-12-20T17:16:29.531Z,6.07
2018-12-20T17:18:57.115Z,5.70
2018-12-20T17:21:24.664Z,5.90
2018-12-20T17:23:52.239Z,6.00
2018-12-20T17:26:19.789Z,6.50
2018-12-20T17:28:47.332Z,5.67
2018-12-20T17:31:14.880Z,6.70
2018-12-20T17:33:43.084Z,6.10
2018-12-20T17:36:10.656Z,6.57
2018-12-20T17:38:38.239Z,6.77
2018-12-20T17:41:05.789Z,6.60
2018-12-20T17:43:33.339Z,6.60
2018-12-20T17:46:02.186Z,8.43
2018-12-20T17:48:31.107Z,7.37
2018-12-20T17:50:59.328Z,8.80
2018-12-20T17:53:29.125Z,8.67
2018-12-20T17:56:00.446Z,10.10
2018-12-20T17:58:29.410Z,9.13
2018-12-20T18:00:56.964Z,9.60
2018-12-20T18:03:24.524Z,9.77
2018-12-20T18:05:52.076Z,8.93
2018-12-20T18:08:19.636Z,9.17
2018-12-20T18:10:47.194Z,8.17
2018-12-20T18:13:14.753Z,7.53
2018-12-20T18:15:42.316Z,7.70
2018-12-20T18:18:09.867Z,6.73
2018-12-20T18:20:43.131Z,7.57
2018-12-20T18:23:17.345Z,7.47
2018-12-20T18:25:50.949Z,6.37
2018-12-20T18:28:29.156Z,6.80
2018-12-20T18:31:00.909Z,6.73
2018-12-20T18:33:33.902Z,6.00
2018-12-20T18:36:02.064Z,6.33
2018-12-20T18:38:29.613Z,6.90
2018-12-20T18:40:57.171Z,5.67
2018-12-20T18:43:24.722Z,5.97
2018-12-20T18:45:52.273Z,4.77
2018-12-20T18:48:20.383Z,5.70
2018-12-20T18:50:47.932Z,4.93
2018-12-20T18:53:15.609Z,6.17
2018-12-20T18:55:43.163Z,5.13
2018-12-20T18:58:10.801Z,5.07
2018-12-20T19:00:38.396Z,4.93
2018-12-20T19:03:05.988Z,4.77
2018-12-20T19:05:33.533Z,4.80
2018-12-20T19:08:01.093Z,5.50
2018-12-20T19:10:28.658Z,5.00
2018-12-20T19:12:56.209Z,5.73
2018-12-20T19:15:23.764Z,5.43
2018-12-20T19:17:51.404Z,5.57
2018-12-20T19:20:18.953Z,5.70
2018-12-20T19:22:46.515Z,5.73
2018-12-20T19:25:14.347Z,5.57
2018-12-20T19:27:41.904Z,6.13
2018-12-20T19:30:09.452Z,5.57
2018-12-20T19:32:37.000Z,6.03
2018-12-20T19:35:05.127Z,5.40
2018-12-20T19:37:32.683Z,5.27
2018-12-20T19:40:02.018Z,5.93
2018-12-20T19:42:29.582Z,5.27
2018-12-20T19:44:57.138Z,5.08
2018-12-20T19:47:24.691Z,4.57
2018-12-20T19:49:52.252Z,4.43
2018-12-20T19:52:19.801Z,4.47
2018-12-20T19:54:48.074Z,4.93
2018-12-20T19:57:16.139Z,3.97
2018-12-20T19:59:43.695Z,4.13
2018-12-20T20:02:11.255Z,3.70
2018-12-20T20:04:38.853Z,4.03
2018-12-20T20:07:06.407Z,3.50
2018-12-20T20:09:33.960Z,3.60
2018-12-20T20:12:01.533Z,3.20
2018-12-20T20:14:29.080Z,3.10
2018-12-20T20:16:56.634Z,2.93
2018-12-20T20:19:24.188Z,2.70
2018-12-20T20:21:51.737Z,2.83
2018-12-20T20:24:19.292Z,2.80
2018-12-20T20:26:46.848Z,2.73
2018-12-20T20:29:14.408Z,2.90
2018-12-20T20:31:41.975Z,3.10
2018-12-20T20:34:10.367Z,2.80
2018-12-20T20:36:37.928Z,2.80
2018-12-20T20:39:05.753Z,2.87
2018-12-20T20:41:35.158Z,2.77
2018-12-20T20:44:02.890Z,3.77
2018-12-20T20:46:30.700Z,2.97
2018-12-20T20:48:58.248Z,3.40
2018-12-20T20:51:25.866Z,2.98
2018-12-20T20:53:53.434Z,2.47
2018-12-20T20:56:21.003Z,2.30
2018-12-20T20:58:48.550Z,2.30
2018-12-20T21:01:16.162Z,2.37
2018-12-20T21:03:43.712Z,2.57
2018-12-20T21:06:11.261Z,2.23
2018-12-20T21:08:38.816Z,2.57
2018-12-20T21:11:06.368Z,3.30
2018-12-20T21:13:33.924Z,3.30
2018-12-20T21:16:01.492Z,3.90
2018-12-20T21:18:29.043Z,5.10
2018-12-20T21:20:56.594Z,5.47
2018-12-20T21:23:24.217Z,6.37
2018-12-20T21:25:51.778Z,5.70
2018-12-20T21:28:19.334Z,6.53
2018-12-20T21:30:46.897Z,5.80
2018-12-20T21:33:14.453Z,6.93
2018-12-20T21:35:42.007Z,6.40
2018-12-20T21:38:09.602Z,6.53
2018-12-20T21:40:37.161Z,6.80
2018-12-20T21:43:04.760Z,6.70
2018-12-20T21:45:32.317Z,7.13
2018-12-20T21:47:59.869Z,5.77
2018-12-20T21:50:27.428Z,6.80
2018-12-20T21:52:54.992Z,7.00
2018-12-20T21:55:22.568Z,6.53
2018-12-20T21:57:50.138Z,6.87
2018-12-20T22:00:17.695Z,6.57
2018-12-20T22:02:45.264Z,6.20
2018-12-20T22:05:12.817Z,6.70
2018-12-20T22:07:40.366Z,6.80
2018-12-20T22:10:07.916Z,6.83
2018-12-20T22:12:35.471Z,7.43
2018-12-20T22:15:03.036Z,6.30
2018-12-20T22:17:30.619Z,6.13
2018-12-20T22:19:58.718Z,6.20
2018-12-20T22:22:26.564Z,6.47
2018-12-20T22:24:54.115Z,7.13
2018-12-20T22:27:21.672Z,6.40
2018-12-20T22:29:49.226Z,6.53
2018-12-20T22:32:16.772Z,6.40
2018-12-20T22:34:44.331Z,5.40
2018-12-20T22:37:11.887Z,4.73
2018-12-20T22:39:39.444Z,4.73
2018-12-20T22:42:06.991Z,4.17
2018-12-20T22:44:35.561Z,4.20
2018-12-20T22:47:03.619Z,4.73
2018-12-20T22:49:31.168Z,4.40
2018-12-20T22:51:58.727Z,4.20
2018-12-20T22:54:26.282Z,4.70
2018-12-20T22:56:53.836Z,4.20
2018-12-20T22:59:21.394Z,4.43
2018-12-20T23:01:48.941Z,4.10
2018-12-20T23:04:16.496Z,4.23
2018-12-20T23:06:44.390Z,4.43
2018-12-20T23:09:11.944Z,4.00
2018-12-20T23:11:39.499Z,3.37
2018-12-20T23:14:07.063Z,4.13
2018-12-20T23:16:35.588Z,4.30
2018-12-20T23:19:03.138Z,3.53
2018-12-20T23:21:30.690Z,4.07
2018-12-20T23:23:58.247Z,4.00
2018-12-20T23:26:25.800Z,4.00
2018-12-20T23:28:53.376Z,3.93
2018-12-20T23:31:20.932Z,4.10
2018-12-20T23:33:48.484Z,3.20
2018-12-20T23:36:16.500Z,4.20
2018-12-20T23:38:44.051Z,3.60
2018-12-20T23:41:11.603Z,3.80
2018-12-20T23:43:39.866Z,3.70
2018-12-20T23:46:07.754Z,3.60
2018-12-20T23:48:36.868Z,3.27
2018-12-20T23:51:13.401Z,4.47
2018-12-20T23:53:35.871Z,4.10
2018-12-20T23:56:03.429Z,4.63
2018-12-20T23:58:30.991Z,4.00
